sensor_id;sensor_type;location;lat;lon;timestamp;pressure;altitude;pressure_sealevel;temperature;humidity
24031;BME280;12240;51.142;22.486;2023-02-20T00:00:23;99466.88;;;-0.24;100.00
24031;BME280;12240;51.142;22.486;2023-02-20T00:02:52;99402.78;;;-0.64;100.00
24031;BME280;12240;51.142;22.486;2023-02-20T00:05:21;99436.19;;;-0.38;100.00
24031;BME280;12240;51.142;22.486;2023-02-20T00:07:49;99455.78;;;-0.29;100.00
24031;BME280;12240;51.142;22.486;2023-02-20T00:10:17;99455.72;;;-0.28;100.00
24031;BME280;12240;51.142;22.486;2023-02-20T00:12:46;99448.88;;;-0.30;100.00
24031;BME280;12240;51.142;22.486;2023-02-20T00:15:16;99399.22;;;-0.63;100.00
24031;BME280;12240;51.142;22.486;2023-02-20T00:17:47;99419.06;;;-0.59;100.00
24031;BME280;12240;51.142;22.486;2023-02-20T00:20:19;99458.81;;;-0.37;100.00
24031;BME280;12240;51.142;22.486;2023-02-20T00:22:48;99441.09;;;-0.47;100.00
24031;BME280;12240;51.142;22.486;2023-02-20T00:25:19;99452.66;;;-0.36;100.00
24031;BME280;12240;51.142;22.486;2023-02-20T00:27:47;99434.44;;;-0.37;100.00
24031;BME280;12240;51.142;22.486;2023-02-20T00:30:23;99439.41;;;-0.33;100.00
24031;BME280;12240;51.142;22.486;2023-02-20T00:32:54;99418.91;;;-0.40;100.00
24031;BME280;12240;51.142;22.486;2023-02-20T00:35:24;99420.94;;;-0.30;100.00
24031;BME280;12240;51.142;22.486;2023-02-20T00:37:54;99439.66;;;-0.22;100.00
24031;BME280;12240;51.142;22.486;2023-02-20T00:40:24;99441.88;;;-0.14;100.00
24031;BME280;12240;51.142;22.486;2023-02-20T00:42:52;99428.13;;;-0.18;100.00
24031;BME280;12240;51.142;22.486;2023-02-20T00:45:20;99404.66;;;-0.35;100.00
24031;BME280;12240;51.142;22.486;2023-02-20T00:47:48;99402.13;;;-0.36;100.00
24031;BME280;12240;51.142;22.486;2023-02-20T00:50:17;99415.94;;;-0.34;100.00
24031;BME280;12240;51.142;22.486;2023-02-20T00:52:46;99429.13;;;-0.20;100.00
24031;BME280;12240;51.142;22.486;2023-02-20T00:55:14;99312.75;;;-0.91;100.00
24031;BME280;12240;51.142;22.486;2023-02-20T00:57:45;99396.13;;;-0.38;100.00
24031;BME280;12240;51.142;22.486;2023-02-20T01:00:25;99424.72;;;-0.20;100.00
24031;BME280;12240;51.142;22.486;2023-02-20T01:02:54;99398.22;;;-0.29;100.00
24031;BME280;12240;51.142;22.486;2023-02-20T01:05:23;99446.66;;;-0.07;100.00
24031;BME280;12240;51.142;22.486;2023-02-20T01:07:52;99441.69;;;-0.11;100.00
24031;BME280;12240;51.142;22.486;2023-02-20T01:10:21;99443.38;;;-0.10;100.00
24031;BME280;12240;51.142;22.486;2023-02-20T01:12:49;99404.75;;;-0.36;100.00
24031;BME280;12240;51.142;22.486;2023-02-20T01:15:17;99450.06;;;-0.05;100.00
24031;BME280;12240;51.142;22.486;2023-02-20T01:17:46;99433.19;;;-0.15;100.00
24031;BME280;12240;51.142;22.486;2023-02-20T01:20:14;99456.13;;;-0.04;100.00
24031;BME280;12240;51.142;22.486;2023-02-20T01:22:42;99448.47;;;-0.07;100.00
24031;BME280;12240;51.142;22.486;2023-02-20T01:25:11;99450.72;;;-0.01;100.00
24031;BME280;12240;51.142;22.486;2023-02-20T01:27:39;99440.03;;;-0.12;100.00
24031;BME280;12240;51.142;22.486;2023-02-20T01:30:08;99451.59;;;-0.01;100.00
24031;BME280;12240;51.142;22.486;2023-02-20T01:32:37;99438.50;;;-0.01;100.00
24031;BME280;12240;51.142;22.486;2023-02-20T01:35:05;99452.34;;;0.02;100.00
24031;BME280;12240;51.142;22.486;2023-02-20T01:37:34;99441.03;;;0.01;100.00
24031;BME280;12240;51.142;22.486;2023-02-20T01:40:04;99439.25;;;0.02;100.00
24031;BME280;12240;51.142;22.486;2023-02-20T01:42:33;99405.25;;;-0.14;100.00
24031;BME280;12240;51.142;22.486;2023-02-20T01:47:53;99430.13;;;0.09;100.00
24031;BME280;12240;51.142;22.486;2023-02-20T01:53:04;99427.06;;;0.16;100.00
24031;BME280;12240;51.142;22.486;2023-02-20T01:55:48;99392.44;;;0.11;100.00
24031;BME280;12240;51.142;22.486;2023-02-20T01:58:22;99424.34;;;0.18;100.00
24031;BME280;12240;51.142;22.486;2023-02-20T02:00:52;99414.56;;;0.21;100.00
24031;BME280;12240;51.142;22.486;2023-02-20T02:03:28;99364.13;;;-0.12;100.00
24031;BME280;12240;51.142;22.486;2023-02-20T02:06:04;99410.19;;;0.06;100.00
24031;BME280;12240;51.142;22.486;2023-02-20T02:08:35;99412.31;;;0.15;100.00
24031;BME280;12240;51.142;22.486;2023-02-20T02:13:37;99413.97;;;0.16;100.00
24031;BME280;12240;51.142;22.486;2023-02-20T02:22:54;99428.59;;;0.20;100.00
24031;BME280;12240;51.142;22.486;2023-02-20T02:38:21;99372.72;;;-0.10;100.00
24031;BME280;12240;51.142;22.486;2023-02-20T02:41:10;99413.78;;;0.19;100.00
24031;BME280;12240;51.142;22.486;2023-02-20T02:44:14;99414.75;;;0.18;100.00
24031;BME280;12240;51.142;22.486;2023-02-20T02:47:05;99406.50;;;0.24;100.00
24031;BME280;12240;51.142;22.486;2023-02-20T02:52:20;99398.09;;;0.19;100.00
24031;BME280;12240;51.142;22.486;2023-02-20T02:55:09;99409.81;;;0.28;100.00
24031;BME280;12240;51.142;22.486;2023-02-20T02:57:37;99211.41;;;-0.86;100.00
24031;BME280;12240;51.142;22.486;2023-02-20T03:06:19;99406.28;;;0.29;100.00
24031;BME280;12240;51.142;22.486;2023-02-20T03:08:57;99354.81;;;-0.02;100.00
24031;BME280;12240;51.142;22.486;2023-02-20T03:11:29;99370.94;;;0.06;100.00
24031;BME280;12240;51.142;22.486;2023-02-20T03:14:09;99369.16;;;0.07;100.00
24031;BME280;12240;51.142;22.486;2023-02-20T03:19:51;99405.03;;;0.20;100.00
24031;BME280;12240;51.142;22.486;2023-02-20T03:22:38;99395.75;;;0.15;100.00
24031;BME280;12240;51.142;22.486;2023-02-20T03:25:21;99407.28;;;0.26;100.00
24031;BME280;12240;51.142;22.486;2023-02-20T03:28:00;99400.38;;;0.25;100.00
24031;BME280;12240;51.142;22.486;2023-02-20T03:30:59;99404.66;;;0.26;100.00
24031;BME280;12240;51.142;22.486;2023-02-20T03:34:08;99404.50;;;0.29;100.00
24031;BME280;12240;51.142;22.486;2023-02-20T03:37:19;99354.47;;;0.04;100.00
24031;BME280;12240;51.142;22.486;2023-02-20T03:40:10;99404.91;;;0.37;100.00
24031;BME280;12240;51.142;22.486;2023-02-20T03:43:06;99389.72;;;0.28;100.00
24031;BME280;12240;51.142;22.486;2023-02-20T03:46:07;99351.66;;;0.07;100.00
24031;BME280;12240;51.142;22.486;2023-02-20T03:48:50;99406.75;;;0.35;100.00
24031;BME280;12240;51.142;22.486;2023-02-20T03:51:21;99292.41;;;-0.39;100.00
24031;BME280;12240;51.142;22.486;2023-02-20T03:53:59;99396.28;;;0.35;100.00
24031;BME280;12240;51.142;22.486;2023-02-20T03:56:42;99351.34;;;-0.03;100.00
24031;BME280;12240;51.142;22.486;2023-02-20T03:59:24;99411.69;;;0.26;100.00
24031;BME280;12240;51.142;22.486;2023-02-20T04:01:58;99388.66;;;0.17;100.00
24031;BME280;12240;51.142;22.486;2023-02-20T04:04:41;99398.84;;;0.21;100.00
24031;BME280;12240;51.142;22.486;2023-02-20T04:07:20;99408.31;;;0.24;100.00
24031;BME280;12240;51.142;22.486;2023-02-20T04:13:47;99405.59;;;0.25;100.00
24031;BME280;12240;51.142;22.486;2023-02-20T04:16:16;99410.56;;;0.30;100.00
24031;BME280;12240;51.142;22.486;2023-02-20T04:18:45;99404.84;;;0.23;100.00
24031;BME280;12240;51.142;22.486;2023-02-20T04:21:33;99406.50;;;0.24;100.00
24031;BME280;12240;51.142;22.486;2023-02-20T04:24:30;99357.84;;;0.06;100.00
24031;BME280;12240;51.142;22.486;2023-02-20T04:27:00;99398.13;;;0.33;100.00
24031;BME280;12240;51.142;22.486;2023-02-20T04:29:29;99356.16;;;0.05;100.00
24031;BME280;12240;51.142;22.486;2023-02-20T04:31:58;99388.28;;;0.23;100.00
24031;BME280;12240;51.142;22.486;2023-02-20T04:34:31;99388.19;;;0.24;100.00
24031;BME280;12240;51.142;22.486;2023-02-20T04:37:18;99341.56;;;0.01;100.00
24031;BME280;12240;51.142;22.486;2023-02-20T04:39:50;99386.03;;;0.17;100.00
24031;BME280;12240;51.142;22.486;2023-02-20T04:42:18;99331.88;;;-0.13;100.00
24031;BME280;12240;51.142;22.486;2023-02-20T04:44:47;99379.41;;;0.25;100.00
24031;BME280;12240;51.142;22.486;2023-02-20T04:47:17;99367.31;;;0.09;100.00
24031;BME280;12240;51.142;22.486;2023-02-20T04:49:45;99375.56;;;0.17;100.00
24031;BME280;12240;51.142;22.486;2023-02-20T04:52:19;99337.25;;;0.00;100.00
24031;BME280;12240;51.142;22.486;2023-02-20T04:54:47;99360.94;;;0.13;100.00
24031;BME280;12240;51.142;22.486;2023-02-20T04:57:18;99372.66;;;0.21;100.00
24031;BME280;12240;51.142;22.486;2023-02-20T04:59:47;99336.66;;;-0.05;100.00
24031;BME280;12240;51.142;22.486;2023-02-20T05:02:15;99372.19;;;0.15;100.00
24031;BME280;12240;51.142;22.486;2023-02-20T05:04:44;99367.13;;;0.12;100.00
24031;BME280;12240;51.142;22.486;2023-02-20T05:07:12;99340.69;;;0.00;100.00
24031;BME280;12240;51.142;22.486;2023-02-20T05:09:43;99362.56;;;0.15;100.00
24031;BME280;12240;51.142;22.486;2023-02-20T05:12:12;99351.25;;;-0.01;100.00
24031;BME280;12240;51.142;22.486;2023-02-20T05:14:40;99378.25;;;0.15;100.00
24031;BME280;12240;51.142;22.486;2023-02-20T05:17:08;99369.66;;;0.13;100.00
24031;BME280;12240;51.142;22.486;2023-02-20T05:19:36;99366.09;;;0.14;100.00
24031;BME280;12240;51.142;22.486;2023-02-20T05:22:10;99350.34;;;0.00;100.00
24031;BME280;12240;51.142;22.486;2023-02-20T05:24:50;99365.03;;;0.03;100.00
24031;BME280;12240;51.142;22.486;2023-02-20T05:27:20;99371.09;;;0.03;100.00
24031;BME280;12240;51.142;22.486;2023-02-20T05:29:57;99368.81;;;-0.03;100.00
24031;BME280;12240;51.142;22.486;2023-02-20T05:32:28;99369.00;;;-0.06;100.00
24031;BME280;12240;51.142;22.486;2023-02-20T05:34:58;99374.81;;;-0.01;100.00
24031;BME280;12240;51.142;22.486;2023-02-20T05:37:27;99361.34;;;-0.09;100.00
24031;BME280;12240;51.142;22.486;2023-02-20T05:39:55;99318.31;;;-0.35;100.00
24031;BME280;12240;51.142;22.486;2023-02-20T05:42:25;99323.38;;;-0.32;100.00
24031;BME280;12240;51.142;22.486;2023-02-20T05:44:54;99326.84;;;-0.31;100.00
24031;BME280;12240;51.142;22.486;2023-02-20T05:47:22;99359.63;;;-0.10;100.00
24031;BME280;12240;51.142;22.486;2023-02-20T05:49:50;99314.00;;;-0.36;100.00
24031;BME280;12240;51.142;22.486;2023-02-20T05:52:18;99330.38;;;-0.32;100.00
24031;BME280;12240;51.142;22.486;2023-02-20T05:54:46;99320.69;;;-0.46;100.00
24031;BME280;12240;51.142;22.486;2023-02-20T05:57:15;99380.75;;;-0.13;100.00
24031;BME280;12240;51.142;22.486;2023-02-20T05:59:43;99321.72;;;-0.48;100.00
24031;BME280;12240;51.142;22.486;2023-02-20T06:02:11;99359.59;;;-0.24;100.00
24031;BME280;12240;51.142;22.486;2023-02-20T06:04:40;99387.69;;;-0.12;100.00
24031;BME280;12240;51.142;22.486;2023-02-20T06:07:08;99378.91;;;-0.11;100.00
24031;BME280;12240;51.142;22.486;2023-02-20T06:09:43;99388.09;;;-0.04;100.00
24031;BME280;12240;51.142;22.486;2023-02-20T06:12:12;99360.22;;;-0.05;100.00
24031;BME280;12240;51.142;22.486;2023-02-20T06:14:41;99397.75;;;0.25;100.00
24031;BME280;12240;51.142;22.486;2023-02-20T06:17:10;99395.44;;;0.35;100.00
24031;BME280;12240;51.142;22.486;2023-02-20T06:19:38;99387.53;;;0.50;100.00
24031;BME280;12240;51.142;22.486;2023-02-20T06:22:07;99336.91;;;0.36;100.00
24031;BME280;12240;51.142;22.486;2023-02-20T06:24:35;99352.47;;;0.53;100.00
24031;BME280;12240;51.142;22.486;2023-02-20T06:27:04;99367.84;;;0.73;100.00
24031;BME280;12240;51.142;22.486;2023-02-20T06:29:36;99376.00;;;0.82;100.00
24031;BME280;12240;51.142;22.486;2023-02-20T06:32:05;99353.34;;;0.81;100.00
24031;BME280;12240;51.142;22.486;2023-02-20T06:34:33;99360.00;;;0.87;100.00
24031;BME280;12240;51.142;22.486;2023-02-20T06:37:02;99351.13;;;0.89;100.00
24031;BME280;12240;51.142;22.486;2023-02-20T06:39:31;99358.31;;;0.86;100.00
24031;BME280;12240;51.142;22.486;2023-02-20T06:41:59;99355.19;;;0.79;100.00
24031;BME280;12240;51.142;22.486;2023-02-20T06:44:28;99307.25;;;0.49;100.00
24031;BME280;12240;51.142;22.486;2023-02-20T06:46:56;99300.41;;;0.47;100.00
24031;BME280;12240;51.142;22.486;2023-02-20T06:49:24;99321.78;;;0.69;100.00
24031;BME280;12240;51.142;22.486;2023-02-20T06:51:53;99344.91;;;0.76;100.00
24031;BME280;12240;51.142;22.486;2023-02-20T06:54:21;99356.53;;;0.86;100.00
24031;BME280;12240;51.142;22.486;2023-02-20T06:56:49;99286.31;;;0.49;100.00
24031;BME280;12240;51.142;22.486;2023-02-20T06:59:20;99340.13;;;0.83;100.00
24031;BME280;12240;51.142;22.486;2023-02-20T07:01:48;99274.53;;;0.56;100.00
24031;BME280;12240;51.142;22.486;2023-02-20T07:04:23;99315.34;;;0.88;100.00
24031;BME280;12240;51.142;22.486;2023-02-20T07:06:54;99282.47;;;0.83;100.00
24031;BME280;12240;51.142;22.486;2023-02-20T07:09:23;99338.38;;;1.26;100.00
24031;BME280;12240;51.142;22.486;2023-02-20T07:11:52;99338.41;;;1.38;100.00
24031;BME280;12240;51.142;22.486;2023-02-20T07:14:22;99317.50;;;1.51;100.00
24031;BME280;12240;51.142;22.486;2023-02-20T07:16:50;99278.72;;;1.42;100.00
24031;BME280;12240;51.142;22.486;2023-02-20T07:19:20;99322.31;;;1.97;100.00
24031;BME280;12240;51.142;22.486;2023-02-20T07:21:48;99319.06;;;2.06;100.00
24031;BME280;12240;51.142;22.486;2023-02-20T07:24:17;99316.22;;;2.23;100.00
24031;BME280;12240;51.142;22.486;2023-02-20T07:26:46;99219.09;;;1.58;100.00
24031;BME280;12240;51.142;22.486;2023-02-20T07:29:15;99310.97;;;2.49;100.00
24031;BME280;12240;51.142;22.486;2023-02-20T07:31:43;99286.47;;;2.48;100.00
24031;BME280;12240;51.142;22.486;2023-02-20T07:34:12;99296.25;;;2.59;100.00
24031;BME280;12240;51.142;22.486;2023-02-20T07:36:41;99277.00;;;2.58;100.00
24031;BME280;12240;51.142;22.486;2023-02-20T07:39:09;99216.69;;;2.19;100.00
24031;BME280;12240;51.142;22.486;2023-02-20T07:41:39;99262.50;;;2.65;100.00
24031;BME280;12240;51.142;22.486;2023-02-20T07:44:28;99242.94;;;2.69;100.00
24031;BME280;12240;51.142;22.486;2023-02-20T07:46:56;99226.56;;;2.66;100.00
24031;BME280;12240;51.142;22.486;2023-02-20T07:49:24;99247.53;;;3.03;100.00
24031;BME280;12240;51.142;22.486;2023-02-20T07:51:52;99231.75;;;3.03;100.00
24031;BME280;12240;51.142;22.486;2023-02-20T07:54:20;99224.09;;;3.24;100.00
24031;BME280;12240;51.142;22.486;2023-02-20T07:56:48;99216.41;;;2.97;100.00
24031;BME280;12240;51.142;22.486;2023-02-20T07:59:17;99220.47;;;3.01;100.00
24031;BME280;12240;51.142;22.486;2023-02-20T08:01:45;99188.34;;;2.85;100.00
24031;BME280;12240;51.142;22.486;2023-02-20T08:04:14;99213.22;;;3.05;100.00
24031;BME280;12240;51.142;22.486;2023-02-20T08:06:43;99212.28;;;3.06;100.00
24031;BME280;12240;51.142;22.486;2023-02-20T08:09:11;99227.00;;;3.08;100.00
24031;BME280;12240;51.142;22.486;2023-02-20T08:11:40;99213.78;;;2.97;100.00
24031;BME280;12240;51.142;22.486;2023-02-20T08:14:13;99221.09;;;3.05;100.00
24031;BME280;12240;51.142;22.486;2023-02-20T08:16:42;99228.56;;;3.11;100.00
24031;BME280;12240;51.142;22.486;2023-02-20T08:19:10;99225.59;;;3.15;100.00
24031;BME280;12240;51.142;22.486;2023-02-20T08:21:39;99222.56;;;3.21;100.00
24031;BME280;12240;51.142;22.486;2023-02-20T08:24:07;99166.13;;;2.89;100.00
24031;BME280;12240;51.142;22.486;2023-02-20T08:26:45;99176.47;;;2.92;100.00
24031;BME280;12240;51.142;22.486;2023-02-20T08:29:15;99219.72;;;3.12;100.00
24031;BME280;12240;51.142;22.486;2023-02-20T08:31:44;99188.31;;;2.98;100.00
24031;BME280;12240;51.142;22.486;2023-02-20T08:34:14;99203.78;;;3.02;100.00
24031;BME280;12240;51.142;22.486;2023-02-20T08:36:42;99186.91;;;3.05;100.00
24031;BME280;12240;51.142;22.486;2023-02-20T08:39:10;99135.41;;;2.90;100.00
24031;BME280;12240;51.142;22.486;2023-02-20T08:41:43;99183.00;;;3.34;100.00
24031;BME280;12240;51.142;22.486;2023-02-20T08:44:13;99174.81;;;3.38;100.00
24031;BME280;12240;51.142;22.486;2023-02-20T08:46:49;99167.41;;;3.43;100.00
24031;BME280;12240;51.142;22.486;2023-02-20T08:49:18;99106.56;;;3.24;100.00
24031;BME280;12240;51.142;22.486;2023-02-20T08:51:52;99111.59;;;3.27;100.00
24031;BME280;12240;51.142;22.486;2023-02-20T08:54:21;99163.31;;;3.74;100.00
24031;BME280;12240;51.142;22.486;2023-02-20T08:56:50;99148.63;;;3.83;100.00
24031;BME280;12240;51.142;22.486;2023-02-20T08:59:18;99169.63;;;3.95;100.00
24031;BME280;12240;51.142;22.486;2023-02-20T09:01:47;99139.06;;;3.93;100.00
24031;BME280;12240;51.142;22.486;2023-02-20T09:04:15;99126.38;;;3.98;100.00
24031;BME280;12240;51.142;22.486;2023-02-20T09:06:44;99089.63;;;3.96;100.00
24031;BME280;12240;51.142;22.486;2023-02-20T09:09:12;99084.34;;;3.96;100.00
24031;BME280;12240;51.142;22.486;2023-02-20T09:11:41;99139.84;;;4.39;100.00
24031;BME280;12240;51.142;22.486;2023-02-20T09:14:09;99115.03;;;4.30;100.00
24031;BME280;12240;51.142;22.486;2023-02-20T09:16:37;99121.78;;;4.45;100.00
24031;BME280;12240;51.142;22.486;2023-02-20T09:19:09;99116.25;;;4.48;100.00
24031;BME280;12240;51.142;22.486;2023-02-20T09:21:37;99092.16;;;4.53;100.00
24031;BME280;12240;51.142;22.486;2023-02-20T09:24:06;99074.88;;;4.60;100.00
24031;BME280;12240;51.142;22.486;2023-02-20T09:26:34;99100.16;;;4.73;100.00
24031;BME280;12240;51.142;22.486;2023-02-20T09:29:03;99080.16;;;4.60;100.00
24031;BME280;12240;51.142;22.486;2023-02-20T09:31:32;99096.44;;;4.65;100.00
24031;BME280;12240;51.142;22.486;2023-02-20T09:34:00;99063.00;;;4.54;100.00
24031;BME280;12240;51.142;22.486;2023-02-20T09:36:28;99064.50;;;4.36;100.00
24031;BME280;12240;51.142;22.486;2023-02-20T09:38:57;99096.09;;;4.47;100.00
24031;BME280;12240;51.142;22.486;2023-02-20T09:53:39;99057.19;;;4.40;100.00
24031;BME280;12240;51.142;22.486;2023-02-20T09:56:25;99011.91;;;4.24;100.00
24031;BME280;12240;51.142;22.486;2023-02-20T10:02:12;99038.09;;;4.58;100.00
24031;BME280;12240;51.142;22.486;2023-02-20T10:04:55;98945.47;;;3.98;100.00
24031;BME280;12240;51.142;22.486;2023-02-20T10:07:36;99013.69;;;4.34;100.00
24031;BME280;12240;51.142;22.486;2023-02-20T10:10:27;98962.81;;;4.12;100.00
24031;BME280;12240;51.142;22.486;2023-02-20T10:13:26;99014.16;;;4.39;100.00
24031;BME280;12240;51.142;22.486;2023-02-20T10:16:36;98977.50;;;4.25;100.00
24031;BME280;12240;51.142;22.486;2023-02-20T10:22:35;98990.31;;;4.41;100.00
24031;BME280;12240;51.142;22.486;2023-02-20T10:25:27;99007.91;;;4.40;100.00
24031;BME280;12240;51.142;22.486;2023-02-20T10:28:06;98971.19;;;4.17;100.00
24031;BME280;12240;51.142;22.486;2023-02-20T10:33:52;98981.84;;;4.15;100.00
24031;BME280;12240;51.142;22.486;2023-02-20T10:36:51;98985.09;;;4.19;100.00
24031;BME280;12240;51.142;22.486;2023-02-20T10:39:20;98926.94;;;3.78;100.00
24031;BME280;12240;51.142;22.486;2023-02-20T10:41:54;98917.38;;;3.77;100.00
24031;BME280;12240;51.142;22.486;2023-02-20T10:50:08;98916.88;;;3.94;100.00
24031;BME280;12240;51.142;22.486;2023-02-20T10:59:25;98859.53;;;3.75;100.00
24031;BME280;12240;51.142;22.486;2023-02-20T11:01:57;98910.22;;;4.21;100.00
24031;BME280;12240;51.142;22.486;2023-02-20T11:04:38;98917.47;;;4.40;100.00
24031;BME280;12240;51.142;22.486;2023-02-20T11:07:13;98821.78;;;3.97;100.00
24031;BME280;12240;51.142;22.486;2023-02-20T11:09:42;98809.28;;;3.78;100.00
24031;BME280;12240;51.142;22.486;2023-02-20T11:14:56;98829.25;;;3.92;100.00
24031;BME280;12240;51.142;22.486;2023-02-20T11:17:28;98863.78;;;4.09;100.00
24031;BME280;12240;51.142;22.486;2023-02-20T11:19:58;98800.53;;;3.78;100.00
24031;BME280;12240;51.142;22.486;2023-02-20T11:22:47;98832.59;;;3.94;100.00
24031;BME280;12240;51.142;22.486;2023-02-20T11:25:30;98846.69;;;4.04;100.00
24031;BME280;12240;51.142;22.486;2023-02-20T11:28:37;98800.34;;;3.70;100.00
24031;BME280;12240;51.142;22.486;2023-02-20T11:31:06;98843.47;;;3.89;100.00
24031;BME280;12240;51.142;22.486;2023-02-20T11:33:42;98829.97;;;3.83;100.00
24031;BME280;12240;51.142;22.486;2023-02-20T11:36:23;98809.31;;;3.67;100.00
24031;BME280;12240;51.142;22.486;2023-02-20T11:38:58;98757.78;;;3.42;100.00
24031;BME280;12240;51.142;22.486;2023-02-20T11:41:36;98767.84;;;3.37;100.00
24031;BME280;12240;51.142;22.486;2023-02-20T11:44:19;98827.19;;;3.52;100.00
24031;BME280;12240;51.142;22.486;2023-02-20T11:47:18;98824.41;;;3.43;100.00
24031;BME280;12240;51.142;22.486;2023-02-20T11:49:49;98809.59;;;3.31;100.00
24031;BME280;12240;51.142;22.486;2023-02-20T11:53:02;98801.13;;;3.16;100.00
24031;BME280;12240;51.142;22.486;2023-02-20T11:55:33;98789.28;;;3.00;100.00
24031;BME280;12240;51.142;22.486;2023-02-20T11:58:02;98765.03;;;2.85;100.00
24031;BME280;12240;51.142;22.486;2023-02-20T12:00:47;98742.31;;;2.73;100.00
24031;BME280;12240;51.142;22.486;2023-02-20T12:03:29;98736.69;;;2.56;100.00
24031;BME280;12240;51.142;22.486;2023-02-20T12:05:59;98720.31;;;2.52;100.00
24031;BME280;12240;51.142;22.486;2023-02-20T12:11:17;98718.41;;;2.54;100.00
24031;BME280;12240;51.142;22.486;2023-02-20T12:13:50;98681.94;;;2.27;100.00
24031;BME280;12240;51.142;22.486;2023-02-20T12:22:33;98648.50;;;2.07;100.00
24031;BME280;12240;51.142;22.486;2023-02-20T12:25:29;98754.97;;;2.79;100.00
24031;BME280;12240;51.142;22.486;2023-02-20T12:28:29;98736.69;;;2.78;100.00
24031;BME280;12240;51.142;22.486;2023-02-20T12:37:21;98716.50;;;2.78;100.00
24031;BME280;12240;51.142;22.486;2023-02-20T12:46:23;98692.13;;;2.65;100.00
24031;BME280;12240;51.142;22.486;2023-02-20T12:49:13;98686.13;;;2.63;100.00
24031;BME280;12240;51.142;22.486;2023-02-20T12:52:04;98677.31;;;2.53;100.00
24031;BME280;12240;51.142;22.486;2023-02-20T12:55:16;98669.31;;;2.44;100.00
24031;BME280;12240;51.142;22.486;2023-02-20T12:58:23;98648.16;;;2.23;100.00
24031;BME280;12240;51.142;22.486;2023-02-20T13:01:08;98627.38;;;2.31;100.00
24031;BME280;12240;51.142;22.486;2023-02-20T13:03:59;98574.97;;;2.29;100.00
24031;BME280;12240;51.142;22.486;2023-02-20T13:07:19;98556.47;;;2.31;100.00
24031;BME280;12240;51.142;22.486;2023-02-20T13:12:50;98573.91;;;2.21;100.00
24031;BME280;12240;51.142;22.486;2023-02-20T13:16:00;98597.78;;;2.51;100.00
24031;BME280;12240;51.142;22.486;2023-02-20T13:21:24;98596.78;;;2.63;100.00
24031;BME280;12240;51.142;22.486;2023-02-20T13:24:38;98561.81;;;2.52;100.00
24031;BME280;12240;51.142;22.486;2023-02-20T13:27:09;98582.66;;;2.75;100.00
24031;BME280;12240;51.142;22.486;2023-02-20T13:29:58;98539.72;;;2.86;100.00
24031;BME280;12240;51.142;22.486;2023-02-20T13:32:31;98548.78;;;2.93;100.00
24031;BME280;12240;51.142;22.486;2023-02-20T13:38:15;98481.28;;;2.93;100.00
24031;BME280;12240;51.142;22.486;2023-02-20T13:43:30;98511.06;;;3.35;100.00
24031;BME280;12240;51.142;22.486;2023-02-20T13:48:49;98503.66;;;3.49;100.00
24031;BME280;12240;51.142;22.486;2023-02-20T13:59:15;98497.31;;;3.73;100.00
24031;BME280;12240;51.142;22.486;2023-02-20T14:02:23;98478.31;;;3.79;100.00
24031;BME280;12240;51.142;22.486;2023-02-20T14:05:03;98465.88;;;3.81;100.00
24031;BME280;12240;51.142;22.486;2023-02-20T14:07:38;98403.72;;;3.59;100.00
24031;BME280;12240;51.142;22.486;2023-02-20T14:10:28;98436.13;;;3.99;100.00
24031;BME280;12240;51.142;22.486;2023-02-20T14:15:59;98401.94;;;4.09;100.00
24031;BME280;12240;51.142;22.486;2023-02-20T14:18:31;98368.91;;;4.05;100.00
24031;BME280;12240;51.142;22.486;2023-02-20T14:21:20;98340.66;;;3.97;100.00
24031;BME280;12240;51.142;22.486;2023-02-20T14:23:53;98262.53;;;3.48;100.00
24031;BME280;12240;51.142;22.486;2023-02-20T14:26:29;98367.56;;;4.29;100.00
24031;BME280;12240;51.142;22.486;2023-02-20T14:28:59;98370.06;;;4.40;100.00
24031;BME280;12240;51.142;22.486;2023-02-20T14:31:37;98327.50;;;4.45;100.00
24031;BME280;12240;51.142;22.486;2023-02-20T14:42:37;98325.41;;;4.48;100.00
24031;BME280;12240;51.142;22.486;2023-02-20T14:45:24;98361.72;;;4.73;100.00
24031;BME280;12240;51.142;22.486;2023-02-20T14:47:59;98384.47;;;4.84;100.00
24031;BME280;12240;51.142;22.486;2023-02-20T14:50:35;98396.56;;;4.87;100.00
24031;BME280;12240;51.142;22.486;2023-02-20T14:53:18;98376.44;;;4.76;100.00
24031;BME280;12240;51.142;22.486;2023-02-20T14:55:50;98351.34;;;4.62;100.00
24031;BME280;12240;51.142;22.486;2023-02-20T14:58:20;98410.25;;;5.09;100.00
24031;BME280;12240;51.142;22.486;2023-02-20T15:00:52;98397.22;;;5.08;100.00
24031;BME280;12240;51.142;22.486;2023-02-20T15:03:25;98386.66;;;5.08;100.00
24031;BME280;12240;51.142;22.486;2023-02-20T15:06:03;98410.13;;;5.11;100.00
24031;BME280;12240;51.142;22.486;2023-02-20T15:08:35;98398.59;;;5.12;100.00
24031;BME280;12240;51.142;22.486;2023-02-20T15:11:06;98380.13;;;5.12;100.00
24031;BME280;12240;51.142;22.486;2023-02-20T15:13:42;98372.34;;;5.10;100.00
24031;BME280;12240;51.142;22.486;2023-02-20T15:16:24;98356.53;;;5.10;100.00
24031;BME280;12240;51.142;22.486;2023-02-20T15:18:54;98360.66;;;5.22;100.00
24031;BME280;12240;51.142;22.486;2023-02-20T15:21:39;98353.44;;;5.24;100.00
24031;BME280;12240;51.142;22.486;2023-02-20T15:24:38;98342.88;;;5.24;100.00
24031;BME280;12240;51.142;22.486;2023-02-20T15:27:20;98292.81;;;5.05;100.00
24031;BME280;12240;51.142;22.486;2023-02-20T15:30:16;98335.16;;;5.40;100.00
24031;BME280;12240;51.142;22.486;2023-02-20T15:32:51;98323.34;;;5.44;100.00
24031;BME280;12240;51.142;22.486;2023-02-20T15:35:25;98332.53;;;5.40;100.00
24031;BME280;12240;51.142;22.486;2023-02-20T15:37:57;98330.81;;;5.49;100.00
24031;BME280;12240;51.142;22.486;2023-02-20T15:40:31;98253.56;;;5.20;100.00
24031;BME280;12240;51.142;22.486;2023-02-20T15:43:00;98289.72;;;5.46;100.00